createdAt,value
2023-01-24T00:00:52.869Z,27.23
2023-01-24T00:03:20.054Z,25.67
2023-01-24T00:05:48.421Z,26.90
2023-01-24T00:08:19.533Z,29.10
2023-01-24T00:10:47.032Z,28.65
2023-01-24T00:13:14.997Z,28.38
2023-01-24T00:15:42.197Z,26.70
2023-01-24T00:18:09.862Z,29.65
2023-01-24T00:20:37.059Z,28.10
2023-01-24T00:23:04.000Z,28.05
2023-01-24T00:25:31.274Z,27.20
2023-01-24T00:27:58.258Z,28.70
2023-01-24T00:30:26.365Z,29.00
2023-01-24T00:32:53.333Z,28.42
2023-01-24T00:35:20.529Z,23.42
2023-01-24T00:37:47.736Z,26.85
2023-01-24T00:40:14.726Z,31.13
2023-01-24T00:42:42.113Z,30.02
2023-01-24T00:45:09.330Z,26.73
2023-01-24T00:47:36.443Z,25.05
2023-01-24T00:50:03.495Z,29.20
2023-01-24T00:52:30.880Z,28.23
2023-01-24T00:54:58.012Z,30.60
2023-01-24T00:57:25.664Z,29.75
2023-01-24T00:59:52.564Z,29.02
2023-01-24T01:02:19.670Z,29.83
2023-01-24T01:04:47.284Z,29.63
2023-01-24T01:07:14.978Z,28.70
2023-01-24T01:09:42.992Z,28.77
2023-01-24T01:12:10.364Z,29.38
2023-01-24T01:14:37.276Z,30.23
2023-01-24T01:17:04.227Z,32.17
2023-01-24T01:19:31.149Z,27.13
2023-01-24T01:21:58.368Z,26.70
2023-01-24T01:24:26.161Z,26.58
2023-01-24T01:26:53.119Z,26.00
2023-01-24T01:29:20.101Z,29.55
2023-01-24T01:31:47.119Z,26.88
2023-01-24T01:34:14.305Z,29.88
2023-01-24T01:36:41.255Z,24.65
2023-01-24T01:39:09.014Z,28.00
2023-01-24T01:41:36.142Z,27.35
2023-01-24T01:44:41.568Z,31.23
2023-01-24T01:47:29.414Z,29.10
2023-01-24T01:50:20.119Z,26.17
2023-01-24T01:52:47.529Z,29.63
2023-01-24T01:55:17.689Z,25.38
2023-01-24T01:57:46.484Z,29.00
2023-01-24T02:00:22.335Z,28.88
2023-01-24T02:03:16.132Z,29.65
2023-01-24T02:05:43.616Z,24.67
2023-01-24T02:08:13.564Z,26.90
2023-01-24T02:11:00.468Z,27.92
2023-01-24T02:13:27.980Z,25.30
2023-01-24T02:16:04.300Z,26.90
2023-01-24T02:18:33.191Z,24.27
2023-01-24T02:21:00.302Z,24.48
2023-01-24T02:24:03.591Z,24.75
2023-01-24T02:26:31.239Z,22.77
2023-01-24T02:29:06.343Z,24.08
2023-01-24T02:31:56.133Z,24.13
2023-01-24T02:34:24.723Z,24.75
2023-01-24T02:36:58.209Z,23.67
2023-01-24T02:39:33.550Z,23.30
2023-01-24T02:42:27.504Z,22.95
2023-01-24T02:45:09.710Z,20.90
2023-01-24T02:47:46.398Z,22.70
2023-01-24T02:50:13.906Z,21.27
2023-01-24T02:52:59.537Z,24.45
2023-01-24T02:55:27.477Z,24.02
2023-01-24T02:58:08.613Z,23.00
2023-01-24T03:00:40.709Z,23.77
2023-01-24T03:03:09.774Z,23.05
2023-01-24T03:05:55.969Z,22.92
2023-01-24T03:08:27.724Z,22.10
2023-01-24T03:10:57.326Z,24.00
2023-01-24T03:13:44.867Z,25.10
2023-01-24T03:16:33.091Z,23.60
2023-01-24T03:19:19.059Z,23.75
2023-01-24T03:22:05.365Z,21.58
2023-01-24T03:24:50.768Z,24.08
2023-01-24T03:27:36.736Z,24.88
2023-01-24T03:30:23.459Z,21.83
2023-01-24T03:33:08.942Z,19.90
2023-01-24T03:35:36.690Z,25.33
2023-01-24T03:38:22.356Z,20.95
2023-01-24T03:40:53.595Z,23.83
2023-01-24T03:43:20.959Z,22.23
2023-01-24T03:45:53.501Z,21.10
2023-01-24T03:48:37.480Z,22.13
2023-01-24T03:51:24.885Z,20.33
2023-01-24T03:53:52.238Z,24.35
2023-01-24T03:56:21.124Z,20.73
2023-01-24T03:58:54.729Z,21.23
2023-01-24T04:01:23.757Z,21.40
2023-01-24T04:03:59.767Z,19.90
2023-01-24T04:06:26.895Z,21.00
2023-01-24T04:08:53.871Z,23.40
2023-01-24T04:11:23.118Z,18.67
2023-01-24T04:13:55.091Z,21.30
2023-01-24T04:16:22.152Z,19.48
2023-01-24T04:19:00.378Z,20.73
2023-01-24T04:21:27.876Z,20.08
2023-01-24T04:23:55.234Z,22.25
2023-01-24T04:26:22.740Z,21.10
2023-01-24T04:28:51.662Z,18.80
2023-01-24T04:31:19.133Z,19.23
2023-01-24T04:34:06.414Z,22.48
2023-01-24T04:36:35.793Z,20.23
2023-01-24T04:39:04.576Z,20.33
2023-01-24T04:41:38.812Z,20.35
2023-01-24T04:44:05.897Z,18.55
2023-01-24T04:46:33.022Z,22.77
2023-01-24T04:49:00.804Z,22.35
2023-01-24T04:51:37.732Z,22.13
2023-01-24T04:54:12.670Z,20.55
2023-01-24T04:56:40.716Z,20.38
2023-01-24T04:59:07.875Z,22.10
2023-01-24T05:01:36.266Z,18.15
2023-01-24T05:04:10.491Z,19.30
2023-01-24T05:06:37.830Z,18.98
2023-01-24T05:09:05.112Z,18.30
2023-01-24T05:11:51.803Z,22.17
2023-01-24T05:14:18.949Z,21.17
2023-01-24T05:16:46.157Z,22.00
2023-01-24T05:19:13.235Z,24.80
2023-01-24T05:21:40.320Z,20.20
2023-01-24T05:24:09.232Z,19.83
2023-01-24T05:26:36.487Z,20.17
2023-01-24T05:29:03.461Z,19.02
2023-01-24T05:31:31.360Z,20.25
2023-01-24T05:33:59.342Z,19.48
2023-01-24T05:36:26.487Z,20.17
2023-01-24T05:38:54.431Z,18.77
2023-01-24T05:41:22.126Z,20.70
2023-01-24T05:43:52.545Z,16.80
2023-01-24T05:46:24.554Z,18.85
2023-01-24T05:49:11.872Z,21.48
2023-01-24T05:51:39.350Z,18.20
2023-01-24T05:54:06.794Z,21.35
2023-01-24T05:56:56.941Z,21.33
2023-01-24T05:59:26.467Z,20.38
2023-01-24T06:01:53.525Z,21.92
2023-01-24T06:04:21.645Z,24.17
2023-01-24T06:06:49.876Z,19.63
2023-01-24T06:09:16.867Z,23.17
2023-01-24T06:11:44.692Z,20.73
2023-01-24T06:14:16.828Z,24.88
2023-01-24T06:16:45.783Z,26.67
2023-01-24T06:19:15.454Z,31.63
2023-01-24T06:21:52.988Z,25.33
2023-01-24T06:24:27.918Z,27.00
2023-01-24T06:27:02.168Z,22.73
2023-01-24T06:29:29.514Z,22.65
2023-01-24T06:32:42.068Z,26.13
2023-01-24T06:35:17.640Z,22.75
2023-01-24T06:37:52.625Z,21.90
2023-01-24T06:40:23.931Z,22.08
2023-01-24T06:42:52.212Z,25.50
2023-01-24T06:45:19.739Z,25.67
2023-01-24T06:47:46.899Z,24.65
2023-01-24T06:50:22.167Z,30.65
2023-01-24T06:52:50.959Z,31.70
2023-01-24T06:55:18.247Z,24.42
2023-01-24T06:57:47.643Z,24.77
2023-01-24T07:00:15.441Z,27.90
2023-01-24T07:02:42.432Z,25.58
2023-01-24T07:05:09.747Z,29.88
2023-01-24T07:07:36.652Z,26.20
2023-01-24T07:10:04.133Z,26.75
2023-01-24T07:12:31.068Z,28.05
2023-01-24T07:14:57.979Z,28.00
2023-01-24T07:17:25.263Z,24.15
2023-01-24T07:19:52.370Z,28.55
2023-01-24T07:22:19.621Z,26.95
2023-01-24T07:24:48.136Z,27.90
2023-01-24T07:27:15.577Z,32.00
2023-01-24T07:29:42.470Z,30.50
2023-01-24T07:32:11.213Z,32.05
2023-01-24T07:34:38.879Z,30.67
2023-01-24T07:37:08.017Z,31.50
2023-01-24T07:39:35.152Z,26.40
2023-01-24T07:42:02.190Z,27.35
2023-01-24T07:44:29.079Z,29.77
2023-01-24T07:46:56.228Z,33.10
2023-01-24T07:49:23.236Z,25.95
2023-01-24T07:51:50.303Z,28.92
2023-01-24T07:54:19.917Z,32.33
2023-01-24T07:56:47.453Z,29.55
2023-01-24T07:59:15.103Z,28.42
2023-01-24T08:01:42.235Z,33.45
2023-01-24T08:04:09.892Z,32.10
2023-01-24T08:06:37.126Z,29.15
2023-01-24T08:09:04.153Z,28.20
2023-01-24T08:11:31.062Z,30.73
2023-01-24T08:13:58.090Z,27.88
2023-01-24T08:16:27.005Z,28.23
2023-01-24T08:18:54.210Z,30.00
2023-01-24T08:21:21.186Z,26.10
2023-01-24T08:23:48.226Z,27.13
2023-01-24T08:26:15.210Z,28.88
2023-01-24T08:28:42.152Z,27.83
2023-01-24T08:31:09.140Z,26.08
2023-01-24T08:33:38.976Z,27.80
2023-01-24T08:36:06.637Z,29.17
2023-01-24T08:38:33.617Z,27.52
2023-01-24T08:41:04.099Z,26.50
2023-01-24T08:43:31.430Z,27.15
2023-01-24T08:45:58.671Z,26.98
2023-01-24T08:48:25.748Z,27.35
2023-01-24T08:50:52.686Z,27.73
2023-01-24T08:53:19.790Z,25.75
2023-01-24T08:55:50.513Z,28.42
2023-01-24T08:58:17.705Z,30.77
2023-01-24T09:00:44.680Z,27.80
2023-01-24T09:03:13.857Z,29.50
2023-01-24T09:05:40.874Z,29.15
2023-01-24T09:08:08.038Z,27.33
2023-01-24T09:10:35.400Z,29.98
2023-01-24T09:13:03.757Z,33.63
2023-01-24T09:15:31.653Z,28.23
2023-01-24T09:18:03.411Z,29.52
2023-01-24T09:20:30.357Z,32.40
2023-01-24T09:22:57.358Z,26.25
2023-01-24T09:25:24.754Z,25.27
2023-01-24T09:27:55.888Z,24.52
2023-01-24T09:30:24.337Z,21.15
2023-01-24T09:32:51.774Z,26.10
2023-01-24T09:35:18.800Z,23.90
2023-01-24T09:37:46.063Z,25.10
2023-01-24T09:40:21.774Z,24.40
2023-01-24T09:43:30.695Z,23.00
2023-01-24T09:46:21.688Z,22.67
2023-01-24T09:48:53.944Z,24.67
2023-01-24T09:51:25.674Z,20.60
2023-01-24T09:53:56.130Z,23.40
2023-01-24T09:56:31.589Z,24.80
2023-01-24T09:59:16.819Z,24.67
2023-01-24T10:01:44.251Z,23.15
2023-01-24T10:04:30.880Z,25.65
2023-01-24T10:07:06.788Z,25.50
2023-01-24T10:10:09.799Z,28.13
2023-01-24T10:12:46.915Z,27.13
2023-01-24T10:15:35.266Z,22.13
2023-01-24T10:18:35.919Z,23.48
2023-01-24T10:21:24.474Z,22.15
2023-01-24T10:23:58.694Z,23.17
2023-01-24T10:26:52.227Z,20.48
2023-01-24T10:29:22.635Z,18.50
2023-01-24T10:31:52.573Z,20.85
2023-01-24T10:34:42.981Z,20.27
2023-01-24T10:37:13.157Z,18.95
2023-01-24T10:39:40.129Z,18.42
2023-01-24T10:42:20.385Z,18.98
2023-01-24T10:44:48.462Z,16.65
2023-01-24T10:47:27.688Z,24.45
2023-01-24T10:50:05.238Z,19.42
2023-01-24T10:52:33.137Z,15.75
2023-01-24T10:55:02.800Z,17.40
2023-01-24T10:57:38.569Z,17.35
2023-01-24T11:00:35.153Z,15.10
2023-01-24T11:03:05.690Z,15.93
2023-01-24T11:05:50.979Z,14.45
2023-01-24T11:08:22.120Z,16.35
2023-01-24T11:10:53.831Z,16.70
2023-01-24T11:13:44.860Z,15.73
2023-01-24T11:16:21.678Z,15.52
2023-01-24T11:19:00.742Z,14.43
2023-01-24T11:21:30.116Z,15.10
2023-01-24T11:24:16.418Z,15.32
2023-01-24T11:26:54.997Z,16.48
2023-01-24T11:29:23.109Z,18.42
2023-01-24T11:31:54.213Z,14.88
2023-01-24T11:34:36.004Z,15.75
2023-01-24T11:37:13.061Z,16.90
2023-01-24T11:39:57.928Z,15.70
2023-01-24T11:42:58.705Z,17.17
2023-01-24T11:45:50.312Z,15.73
2023-01-24T11:48:20.971Z,16.00
2023-01-24T11:51:12.836Z,18.00
2023-01-24T11:54:13.713Z,16.77
2023-01-24T11:56:47.134Z,13.68
2023-01-24T11:59:34.944Z,14.23
2023-01-24T12:02:21.720Z,19.23
2023-01-24T12:04:58.770Z,18.63
2023-01-24T12:07:44.184Z,19.70
2023-01-24T12:10:23.031Z,20.67
2023-01-24T12:13:16.244Z,19.80
2023-01-24T12:16:26.972Z,20.80
2023-01-24T12:19:13.480Z,18.42
2023-01-24T12:21:40.419Z,19.48
2023-01-24T12:24:19.727Z,18.67
2023-01-24T12:26:51.756Z,15.77
2023-01-24T12:29:37.185Z,14.13
2023-01-24T12:32:16.733Z,20.23
2023-01-24T12:35:05.114Z,15.25
2023-01-24T12:37:49.891Z,14.27
2023-01-24T12:40:23.449Z,14.85
2023-01-24T12:42:59.181Z,17.05
2023-01-24T12:45:46.580Z,14.43
2023-01-24T12:48:38.464Z,14.38
2023-01-24T12:51:13.198Z,16.27
2023-01-24T12:53:50.978Z,16.02
2023-01-24T12:56:33.330Z,14.82
2023-01-24T12:59:00.713Z,14.65
2023-01-24T13:01:27.589Z,28.40
2023-01-24T13:04:12.637Z,17.25
2023-01-24T13:06:51.490Z,17.27
2023-01-24T13:09:27.267Z,16.00
2023-01-24T13:11:57.003Z,17.20
2023-01-24T13:14:39.063Z,17.55
2023-01-24T13:17:12.847Z,14.73
2023-01-24T13:20:08.874Z,14.95
2023-01-24T13:23:12.905Z,16.80
2023-01-24T13:25:54.877Z,19.15
2023-01-24T13:28:36.635Z,16.95
2023-01-24T13:31:21.365Z,17.75
2023-01-24T13:34:05.555Z,18.02
2023-01-24T13:36:36.078Z,17.42
2023-01-24T13:39:09.445Z,19.70
2023-01-24T13:41:40.001Z,23.70
2023-01-24T13:44:25.254Z,23.40
2023-01-24T13:46:55.215Z,51.78
2023-01-24T13:49:38.000Z,20.67
2023-01-24T13:52:36.616Z,19.83
2023-01-24T13:55:23.835Z,20.85
2023-01-24T13:58:10.908Z,19.55
2023-01-24T14:00:57.692Z,18.40
2023-01-24T14:03:29.576Z,30.38
2023-01-24T14:06:14.479Z,23.27
2023-01-24T14:08:45.624Z,15.85
2023-01-24T14:11:25.971Z,18.75
2023-01-24T14:14:23.196Z,16.75
2023-01-24T14:16:50.202Z,18.90
2023-01-24T14:19:32.370Z,17.13
2023-01-24T14:22:19.533Z,17.65
2023-01-24T14:25:26.945Z,21.30
2023-01-24T14:28:01.909Z,17.27
2023-01-24T14:30:40.096Z,19.85
2023-01-24T14:33:44.894Z,18.67
2023-01-24T14:36:41.345Z,23.95
2023-01-24T14:39:25.376Z,21.75
2023-01-24T14:41:56.276Z,18.60
2023-01-24T14:44:25.089Z,19.50
2023-01-24T14:47:00.647Z,16.45
2023-01-24T14:49:44.586Z,18.67
2023-01-24T14:52:22.553Z,16.63
2023-01-24T14:55:01.521Z,19.88
2023-01-24T14:57:33.520Z,20.48
2023-01-24T15:00:08.888Z,18.75
2023-01-24T15:02:37.164Z,18.83
2023-01-24T15:05:23.251Z,23.38
2023-01-24T15:07:50.498Z,17.45
2023-01-24T15:10:22.429Z,15.95
2023-01-24T15:12:57.003Z,19.00
2023-01-24T15:15:25.428Z,19.00
2023-01-24T15:17:59.971Z,23.85
2023-01-24T15:20:29.408Z,18.27
2023-01-24T15:22:59.674Z,16.60
2023-01-24T15:25:32.468Z,17.35
2023-01-24T15:28:19.607Z,14.85
2023-01-24T15:31:00.376Z,19.73
2023-01-24T15:33:41.824Z,22.05
2023-01-24T15:36:38.333Z,19.00
2023-01-24T15:39:14.494Z,25.73
2023-01-24T15:42:01.216Z,19.67
2023-01-24T15:44:28.820Z,21.40
2023-01-24T15:47:21.353Z,28.00
2023-01-24T15:50:02.762Z,17.20
2023-01-24T15:52:29.937Z,24.45
2023-01-24T15:55:00.761Z,16.90
2023-01-24T15:57:33.124Z,17.35
2023-01-24T16:00:02.313Z,15.65
2023-01-24T16:02:36.709Z,20.67
2023-01-24T16:05:13.193Z,21.52
2023-01-24T16:07:40.143Z,20.40
2023-01-24T16:10:07.588Z,16.63
2023-01-24T16:12:35.581Z,19.30
2023-01-24T16:15:09.198Z,17.05
2023-01-24T16:17:37.429Z,20.77
2023-01-24T16:20:11.844Z,18.13
2023-01-24T16:22:39.639Z,15.73
2023-01-24T16:25:11.244Z,14.93
2023-01-24T16:27:41.782Z,15.50
2023-01-24T16:30:28.059Z,16.50
2023-01-24T16:32:56.048Z,14.55
2023-01-24T16:35:23.635Z,14.98
2023-01-24T16:37:50.730Z,15.10
2023-01-24T16:40:18.945Z,18.50
2023-01-24T16:42:47.895Z,17.25
2023-01-24T16:45:17.609Z,14.63
2023-01-24T16:47:45.048Z,16.73
2023-01-24T16:50:13.307Z,14.02
2023-01-24T16:52:40.756Z,15.07
2023-01-24T16:55:09.496Z,13.55
2023-01-24T16:57:36.496Z,16.45
2023-01-24T17:00:07.773Z,15.80
2023-01-24T17:02:35.076Z,14.02
2023-01-24T17:05:04.429Z,13.68
2023-01-24T17:07:31.638Z,12.02
2023-01-24T17:09:58.554Z,13.98
2023-01-24T17:12:25.466Z,13.65
2023-01-24T17:14:52.437Z,11.40
2023-01-24T17:17:19.459Z,14.77
2023-01-24T17:19:46.896Z,14.88
2023-01-24T17:22:14.234Z,15.48
2023-01-24T17:24:41.235Z,14.02
2023-01-24T17:27:08.217Z,16.08
2023-01-24T17:29:35.161Z,14.15
2023-01-24T17:32:02.415Z,16.20
2023-01-24T17:34:29.747Z,14.25
2023-01-24T17:36:56.694Z,17.48
2023-01-24T17:39:23.666Z,21.42
2023-01-24T17:41:51.280Z,15.02
2023-01-24T17:44:18.546Z,14.77
2023-01-24T17:46:46.109Z,20.60
2023-01-24T17:49:13.367Z,15.23
2023-01-24T17:51:42.488Z,13.88
2023-01-24T17:54:12.728Z,14.50
2023-01-24T17:56:40.287Z,17.77
2023-01-24T17:59:07.259Z,15.98
2023-01-24T18:01:34.418Z,15.82
2023-01-24T18:04:01.952Z,19.08
2023-01-24T18:06:29.111Z,16.77
2023-01-24T18:08:56.153Z,18.08
2023-01-24T18:11:23.193Z,20.90
2023-01-24T18:13:50.210Z,16.73
2023-01-24T18:16:20.885Z,17.02
2023-01-24T18:18:49.129Z,18.33
2023-01-24T18:21:20.002Z,15.13
2023-01-24T18:23:51.616Z,18.50
2023-01-24T18:26:19.019Z,16.42
2023-01-24T18:28:46.238Z,17.67
2023-01-24T18:31:14.180Z,18.58
2023-01-24T18:33:41.315Z,16.00
2023-01-24T18:36:24.744Z,14.48
2023-01-24T18:38:52.811Z,16.80
2023-01-24T18:41:20.305Z,16.27
2023-01-24T18:43:47.584Z,16.42
2023-01-24T18:46:14.948Z,16.35
2023-01-24T18:48:43.977Z,16.60
2023-01-24T18:51:16.383Z,23.13
2023-01-24T18:53:44.095Z,59.33
2023-01-24T18:56:11.805Z,59.63
2023-01-24T18:58:39.812Z,24.60
2023-01-24T19:03:42.327Z,21.08
2023-01-24T19:06:10.748Z,29.08
2023-01-24T19:08:48.700Z,26.15
2023-01-24T19:11:24.352Z,21.45
2023-01-24T19:13:52.599Z,23.17
2023-01-24T19:16:19.577Z,23.73
2023-01-24T19:18:47.335Z,20.48
2023-01-24T19:21:18.038Z,18.98
2023-01-24T19:23:47.965Z,18.63
2023-01-24T19:26:17.681Z,22.13
2023-01-24T19:28:44.610Z,21.05
2023-01-24T19:31:12.443Z,18.38
2023-01-24T19:33:39.552Z,20.35
2023-01-24T19:36:08.552Z,18.55
2023-01-24T19:38:36.383Z,18.90
2023-01-24T19:41:04.886Z,22.25
2023-01-24T19:43:33.308Z,17.27
2023-01-24T19:46:10.514Z,20.30
2023-01-24T19:48:39.658Z,22.63
2023-01-24T19:51:09.158Z,22.35
2023-01-24T19:53:36.959Z,19.65
2023-01-24T19:56:06.343Z,18.65
2023-01-24T19:58:34.007Z,22.30
2023-01-24T20:01:08.024Z,23.85
2023-01-24T20:03:37.391Z,22.38
2023-01-24T20:06:12.841Z,19.77
2023-01-24T20:08:45.271Z,21.75
2023-01-24T20:11:13.068Z,25.30
2023-01-24T20:13:40.744Z,24.55
2023-01-24T20:16:19.200Z,28.30
2023-01-24T20:18:57.286Z,25.73
2023-01-24T20:21:26.437Z,30.17
2023-01-24T20:23:55.121Z,25.25
2023-01-24T20:26:22.595Z,28.60
2023-01-24T20:28:49.987Z,28.25
2023-01-24T20:31:17.166Z,25.90
2023-01-24T20:33:44.211Z,30.30
2023-01-24T20:36:12.947Z,23.13
2023-01-24T20:38:41.133Z,26.13
2023-01-24T20:41:16.336Z,23.35
2023-01-24T20:43:44.485Z,21.08
2023-01-24T20:46:22.742Z,19.80
2023-01-24T20:48:52.007Z,20.52
2023-01-24T20:51:19.678Z,20.25
2023-01-24T20:53:47.073Z,20.10
2023-01-24T20:56:18.337Z,19.13
2023-01-24T20:58:45.416Z,23.27
2023-01-24T21:01:16.749Z,19.17
2023-01-24T21:03:44.186Z,25.83
2023-01-24T21:06:14.275Z,20.88
2023-01-24T21:08:42.857Z,19.80
2023-01-24T21:11:18.456Z,20.20
2023-01-24T21:13:51.073Z,21.27
2023-01-24T21:16:18.344Z,21.63
2023-01-24T21:18:51.043Z,21.52
2023-01-24T21:21:19.531Z,20.83
2023-01-24T21:23:47.233Z,20.65
2023-01-24T21:26:16.535Z,21.42
2023-01-24T21:28:49.779Z,19.13
2023-01-24T21:31:20.036Z,18.70
2023-01-24T21:33:49.100Z,22.92
2023-01-24T21:36:18.828Z,19.98
2023-01-24T21:38:46.759Z,22.50
2023-01-24T21:41:40.241Z,26.33
2023-01-24T21:44:08.515Z,25.40
2023-01-24T21:46:36.303Z,21.15
2023-01-24T21:49:05.994Z,24.73
2023-01-24T21:51:50.656Z,20.27
2023-01-24T21:54:23.286Z,21.83
2023-01-24T21:57:28.152Z,19.50
2023-01-24T21:59:58.278Z,22.02
2023-01-24T22:02:30.564Z,21.65
2023-01-24T22:04:58.700Z,21.55
2023-01-24T22:07:28.043Z,25.50
2023-01-24T22:09:57.940Z,24.42
2023-01-24T22:12:25.214Z,26.00
2023-01-24T22:14:52.469Z,24.08
2023-01-24T22:17:21.733Z,25.92
2023-01-24T22:19:57.129Z,22.52
2023-01-24T22:22:43.819Z,27.00
2023-01-24T22:25:13.648Z,24.88
2023-01-24T22:27:41.255Z,25.73
2023-01-24T22:30:19.395Z,23.33
2023-01-24T22:32:47.312Z,24.20
2023-01-24T22:35:23.208Z,23.52
2023-01-24T22:37:58.998Z,22.33
2023-01-24T22:40:27.422Z,23.30
2023-01-24T22:42:57.192Z,26.13
2023-01-24T22:45:26.069Z,23.48
2023-01-24T22:47:53.089Z,21.73
2023-01-24T22:50:20.755Z,22.85
2023-01-24T22:52:48.632Z,24.08
2023-01-24T22:55:16.597Z,23.90
2023-01-24T22:57:43.580Z,24.05
2023-01-24T23:00:12.145Z,23.10
2023-01-24T23:02:39.375Z,24.27
2023-01-24T23:05:06.971Z,25.05
2023-01-24T23:07:34.409Z,24.90
2023-01-24T23:10:01.376Z,24.52
2023-01-24T23:12:46.881Z,34.05
2023-01-24T23:15:32.936Z,24.33
2023-01-24T23:18:04.077Z,25.33
2023-01-24T23:20:49.471Z,26.13
2023-01-24T23:23:16.376Z,24.92
2023-01-24T23:25:43.424Z,23.95
2023-01-24T23:28:10.552Z,20.63
2023-01-24T23:30:54.820Z,22.58
2023-01-24T23:33:21.718Z,22.73
2023-01-24T23:35:48.719Z,23.25
2023-01-24T23:38:15.732Z,23.92
2023-01-24T23:40:42.679Z,22.95
2023-01-24T23:43:12.555Z,31.30
2023-01-24T23:45:42.986Z,25.27
2023-01-24T23:48:10.766Z,24.00
2023-01-24T23:50:38.088Z,24.13
2023-01-24T23:53:05.225Z,24.08
2023-01-24T23:55:32.964Z,22.05
2023-01-24T23:58:03.463Z,21.42
